Anthem, Arizona
Current Conditions -  °F | °C
As of 1:53 PM on Monday 20 Oct 2014 (Local Time) from KDVT Reporting Station
Clear Clear  
Wind Chill: 84°   Ceiling: Unl
Heat Index: 84°   Visibility: 10mi
Dew Point: 46°   Wind: 3mph
Humidity: 26%   Direction: 90°E
Pressure: 29.85"   Gusts: NA
Location:  33.8348°N, 112.071°W
Report Text: KDVT 202053Z AUTO 09003KT 10SM CLR 29/08 A2985 RMK AO2 SLP088 T02890078 58024 TSNO
Loading
Personal Weather Stations






























Interactive Weather Map
Tropical Storm Tracking
New forecast layout! Learn more

10-Day Weather Forecast

Advertisements
Track Severe Weather on mobile